Time,TemperatureF,DewpointF,PressureIn,WindDirection,WindDirectionDegrees,WindSpeedMPH,WindSpeedGustMPH,Humidity,HourlyPrecipIn,Conditions,Clouds,dailyrainin,SoftwareType,DateUTC
2013-01-15 00:01:00,14.2,8.9,30.16,North,0,0.0,2.5,79,0.00,,,0.00,WUHU216HW,2013-01-15 07:01:00,
2013-01-15 00:06:00,14.2,8.9,30.16,North,0,2.0,2.0,79,0.00,,,0.00,WUHU216HW,2013-01-15 07:06:00,
2013-01-15 00:11:00,14.2,8.9,30.16,North,0,0.4,2.0,79,0.00,,,0.00,WUHU216HW,2013-01-15 07:11:00,
2013-01-15 00:16:00,14.4,9.1,30.16,North,0,0.4,1.8,79,0.00,,,0.00,WUHU216HW,2013-01-15 07:16:00,
2013-01-15 00:21:00,14.4,9.1,30.17,North,0,0.0,1.1,79,0.00,,,0.00,WUHU216HW,2013-01-15 07:21:00,
2013-01-15 00:26:00,14.6,9.3,30.17,North,0,1.8,1.8,79,0.00,,,0.00,WUHU216HW,2013-01-15 07:26:00,
2013-01-15 00:31:00,14.6,9.5,30.17,North,0,1.1,1.8,80,0.00,,,0.00,WUHU216HW,2013-01-15 07:31:00,
2013-01-15 00:36:00,14.4,9.4,30.17,North,0,0.9,2.5,80,0.00,,,0.00,WUHU216HW,2013-01-15 07:36:00,
2013-01-15 00:41:00,14.4,9.1,30.17,North,0,1.3,2.5,79,0.00,,,0.00,WUHU216HW,2013-01-15 07:41:00,
2013-01-15 00:46:00,14.4,9.4,30.17,North,0,1.8,2.5,80,0.00,,,0.00,WUHU216HW,2013-01-15 07:46:00,
2013-01-15 00:51:00,14.4,9.4,30.17,North,0,0.2,2.5,80,0.00,,,0.00,WUHU216HW,2013-01-15 07:51:00,
2013-01-15 00:56:00,14.4,9.1,30.18,North,0,1.6,2.2,79,0.00,,,0.00,WUHU216HW,2013-01-15 07:56:00,
2013-01-15 01:01:00,14.4,9.4,30.18,North,0,1.3,2.5,80,0.00,,,0.00,WUHU216HW,2013-01-15 08:01:00,
2013-01-15 01:06:00,14.6,9.5,30.18,North,0,2.2,2.5,80,0.00,,,0.00,WUHU216HW,2013-01-15 08:06:00,
2013-01-15 01:11:00,14.6,9.5,30.18,North,0,2.5,2.5,80,0.00,,,0.00,WUHU216HW,2013-01-15 08:11:00,
2013-01-15 01:16:00,14.6,9.5,30.18,North,0,2.9,3.4,80,0.00,,,0.00,WUHU216HW,2013-01-15 08:16:00,
2013-01-15 01:21:00,14.6,9.3,30.18,North,0,1.1,3.4,79,0.00,,,0.00,WUHU216HW,2013-01-15 08:21:00,
2013-01-15 01:26:00,14.4,9.1,30.18,North,0,2.5,2.5,79,0.00,,,0.00,WUHU216HW,2013-01-15 08:26:00,
2013-01-15 01:31:00,14.4,9.1,30.19,North,0,1.6,2.5,79,0.00,,,0.00,WUHU216HW,2013-01-15 08:31:00,
2013-01-15 01:36:00,14.4,9.4,30.19,North,0,1.1,1.8,80,0.00,,,0.00,WUHU216HW,2013-01-15 08:36:00,
2013-01-15 01:41:00,14.2,9.2,30.19,North,0,1.3,2.5,80,0.00,,,0.00,WUHU216HW,2013-01-15 08:41:00,
2013-01-15 01:46:00,14.2,9.2,30.19,North,0,0.9,2.5,80,0.00,,,0.00,WUHU216HW,2013-01-15 08:46:00,
2013-01-15 01:51:00,14.2,9.2,30.18,North,0,2.2,2.5,80,0.00,,,0.00,WUHU216HW,2013-01-15 08:51:00,
2013-01-15 01:56:00,14.2,9.2,30.19,North,0,0.7,3.8,80,0.00,,,0.00,WUHU216HW,2013-01-15 08:56:00,
2013-01-15 02:01:00,14.4,9.4,30.19,North,0,1.1,3.8,80,0.00,,,0.00,WUHU216HW,2013-01-15 09:01:00,
2013-01-15 02:06:00,14.4,9.4,30.19,North,0,1.1,1.8,80,0.00,,,0.00,WUHU216HW,2013-01-15 09:06:00,
2013-01-15 02:11:00,14.4,9.6,30.19,North,0,0.4,2.0,81,0.00,,,0.00,WUHU216HW,2013-01-15 09:11:00,
2013-01-15 02:16:00,14.6,9.5,30.20,North,0,1.1,2.0,80,0.00,,,0.00,WUHU216HW,2013-01-15 09:16:00,
2013-01-15 02:21:00,14.6,9.5,30.21,North,0,1.6,1.8,80,0.00,,,0.00,WUHU216HW,2013-01-15 09:21:00,
2013-01-15 02:26:00,14.6,9.8,30.20,North,0,2.7,3.4,81,0.00,,,0.00,WUHU216HW,2013-01-15 09:26:00,
2013-01-15 02:31:00,14.6,9.8,30.20,North,0,1.1,3.4,81,0.00,,,0.00,WUHU216HW,2013-01-15 09:31:00,
2013-01-15 02:36:00,14.6,9.8,30.20,North,0,1.6,2.5,81,0.00,,,0.00,WUHU216HW,2013-01-15 09:36:00,
2013-01-15 02:41:00,14.6,9.8,30.20,North,0,2.5,2.5,81,0.00,,,0.00,WUHU216HW,2013-01-15 09:41:00,
2013-01-15 02:46:00,14.8,10.0,30.20,North,0,1.3,2.5,81,0.00,,,0.00,WUHU216HW,2013-01-15 09:46:00,
2013-01-15 02:51:00,14.8,10.0,30.20,North,0,1.3,1.8,81,0.00,,,0.00,WUHU216HW,2013-01-15 09:51:00,
2013-01-15 02:56:00,14.8,10.0,30.21,North,0,0.0,1.8,81,0.00,,,0.00,WUHU216HW,2013-01-15 09:56:00,
2013-01-15 03:01:00,14.8,10.0,30.20,North,0,0.0,1.8,81,0.00,,,0.00,WUHU216HW,2013-01-15 10:01:00,
2013-01-15 03:06:00,14.9,10.2,30.21,North,0,0.7,1.1,81,0.00,,,0.00,WUHU216HW,2013-01-15 10:06:00,
2013-01-15 03:11:00,15.1,10.4,30.21,North,0,0.0,1.1,81,0.00,,,0.00,WUHU216HW,2013-01-15 10:11:00,
2013-01-15 03:16:00,15.1,10.4,30.21,North,0,1.1,1.1,81,0.00,,,0.00,WUHU216HW,2013-01-15 10:16:00,
2013-01-15 03:21:00,15.3,10.5,30.21,North,0,2.2,2.2,81,0.00,,,0.00,WUHU216HW,2013-01-15 10:21:00,
2013-01-15 03:26:00,15.3,10.5,30.21,North,0,1.6,2.2,81,0.00,,,0.00,WUHU216HW,2013-01-15 10:26:00,
2013-01-15 03:31:00,15.5,10.7,30.21,North,0,1.3,2.0,81,0.00,,,0.00,WUHU216HW,2013-01-15 10:31:00,
2013-01-15 03:37:00,15.5,10.7,30.21,North,0,0.9,2.0,81,0.00,,,0.00,WUHU216HW,2013-01-15 10:37:00,
2013-01-15 03:42:00,15.5,10.7,30.21,North,0,0.9,1.8,81,0.00,,,0.00,WUHU216HW,2013-01-15 10:42:00,
2013-01-15 03:47:00,15.5,10.4,30.21,North,0,0.4,1.6,80,0.00,,,0.00,WUHU216HW,2013-01-15 10:47:00,
2013-01-15 03:51:00,15.7,10.6,30.21,North,0,0.4,1.6,80,0.00,,,0.00,WUHU216HW,2013-01-15 10:51:00,
2013-01-15 03:56:00,15.8,10.8,30.21,North,0,0.0,1.1,80,0.00,,,0.00,WUHU216HW,2013-01-15 10:56:00,
2013-01-15 04:01:00,15.8,10.8,30.21,North,0,1.8,2.5,80,0.00,,,0.00,WUHU216HW,2013-01-15 11:01:00,
2013-01-15 04:07:00,15.8,10.8,30.21,North,0,0.7,2.5,80,0.00,,,0.00,WUHU216HW,2013-01-15 11:07:00,
2013-01-15 04:12:00,15.8,10.8,30.21,North,0,0.0,1.8,80,0.00,,,0.00,WUHU216HW,2013-01-15 11:12:00,
2013-01-15 04:17:00,15.8,10.8,30.21,North,0,0.7,1.1,80,0.00,,,0.00,WUHU216HW,2013-01-15 11:17:00,
2013-01-15 04:22:00,16.0,11.0,30.21,North,0,1.6,1.6,80,0.00,,,0.00,WUHU216HW,2013-01-15 11:22:00,
2013-01-15 04:27:00,16.0,11.0,30.21,North,0,0.4,1.8,80,0.00,,,0.00,WUHU216HW,2013-01-15 11:27:00,
2013-01-15 04:32:00,16.2,11.2,30.21,North,0,1.3,1.8,80,0.00,,,0.00,WUHU216HW,2013-01-15 11:32:00,
2013-01-15 04:37:00,16.2,11.2,30.21,North,0,0.2,1.6,80,0.00,,,0.00,WUHU216HW,2013-01-15 11:37:00,
2013-01-15 04:42:00,16.0,11.0,30.21,North,0,0.0,1.6,80,0.00,,,0.00,WUHU216HW,2013-01-15 11:42:00,
2013-01-15 04:47:00,16.2,11.2,30.20,North,0,1.1,1.6,80,0.00,,,0.00,WUHU216HW,2013-01-15 11:47:00,
2013-01-15 04:52:00,16.2,11.2,30.19,North,0,2.5,2.5,80,0.00,,,0.00,WUHU216HW,2013-01-15 11:52:00,
2013-01-15 04:57:00,16.2,11.2,30.20,North,0,1.6,2.5,80,0.00,,,0.00,WUHU216HW,2013-01-15 11:57:00,
2013-01-15 05:02:00,16.2,11.2,30.20,North,0,1.8,2.5,80,0.00,,,0.00,WUHU216HW,2013-01-15 12:02:00,
2013-01-15 05:07:00,16.2,11.2,30.21,North,0,1.1,2.2,80,0.00,,,0.00,WUHU216HW,2013-01-15 12:07:00,
2013-01-15 05:12:00,16.4,11.3,30.22,North,0,2.9,2.9,80,0.00,,,0.00,WUHU216HW,2013-01-15 12:12:00,
2013-01-15 05:17:00,16.4,11.3,30.22,North,0,3.6,4.0,80,0.00,,,0.00,WUHU216HW,2013-01-15 12:17:00,
2013-01-15 05:22:00,16.6,11.4,30.21,North,0,5.4,5.4,80,0.00,,,0.00,WUHU216HW,2013-01-15 12:22:00,
2013-01-15 05:27:00,16.7,11.6,30.21,North,0,5.4,5.4,80,0.00,,,0.00,WUHU216HW,2013-01-15 12:27:00,
2013-01-15 05:32:00,16.9,11.8,30.20,North,0,4.5,5.4,80,0.00,,,0.00,WUHU216HW,2013-01-15 12:32:00,
2013-01-15 05:37:00,16.9,11.8,30.20,North,0,2.9,4.9,80,0.00,,,0.00,WUHU216HW,2013-01-15 12:37:00,
2013-01-15 05:42:00,16.7,11.4,30.21,North,0,3.4,4.7,79,0.00,,,0.00,WUHU216HW,2013-01-15 12:42:00,
2013-01-15 05:47:00,16.6,11.4,30.21,North,0,1.6,3.8,80,0.00,,,0.00,WUHU216HW,2013-01-15 12:47:00,
2013-01-15 05:52:00,16.6,11.4,30.20,North,0,5.6,5.6,80,0.00,,,0.00,WUHU216HW,2013-01-15 12:52:00,
2013-01-15 05:57:00,16.7,11.6,30.21,North,0,4.0,5.6,80,0.00,,,0.00,WUHU216HW,2013-01-15 12:57:00,
2013-01-15 06:02:00,16.7,11.6,30.21,North,0,2.5,5.4,80,0.00,,,0.00,WUHU216HW,2013-01-15 13:02:00,
2013-01-15 06:07:00,16.9,11.8,30.21,North,0,8.1,8.5,80,0.00,,,0.00,WUHU216HW,2013-01-15 13:07:00,
2013-01-15 06:12:00,16.9,11.5,30.21,North,0,4.9,8.5,79,0.00,,,0.00,WUHU216HW,2013-01-15 13:12:00,
2013-01-15 06:17:00,16.7,11.4,30.20,North,0,6.3,7.6,79,0.00,,,0.00,WUHU216HW,2013-01-15 13:17:00,
2013-01-15 06:22:00,16.6,11.2,30.21,North,0,2.9,6.3,79,0.00,,,0.00,WUHU216HW,2013-01-15 13:22:00,
2013-01-15 06:27:00,16.6,11.2,30.21,North,0,1.8,4.3,79,0.00,,,0.00,WUHU216HW,2013-01-15 13:27:00,
2013-01-15 06:32:00,16.4,11.0,30.22,North,0,0.7,4.0,79,0.00,,,0.00,WUHU216HW,2013-01-15 13:32:00,
2013-01-15 06:37:00,16.4,11.0,30.21,North,0,2.5,2.9,79,0.00,,,0.00,WUHU216HW,2013-01-15 13:37:00,
2013-01-15 06:42:00,16.4,11.3,30.21,North,0,0.2,4.0,80,0.00,,,0.00,WUHU216HW,2013-01-15 13:42:00,
2013-01-15 06:47:00,16.4,11.3,30.20,North,0,2.9,4.3,80,0.00,,,0.00,WUHU216HW,2013-01-15 13:47:00,
2013-01-15 06:52:00,16.6,11.4,30.21,North,0,3.6,4.3,80,0.00,,,0.00,WUHU216HW,2013-01-15 13:52:00,
2013-01-15 06:57:00,16.6,11.4,30.21,North,0,1.1,4.0,80,0.00,,,0.00,WUHU216HW,2013-01-15 13:57:00,
2013-01-15 07:02:00,16.7,11.6,30.21,North,0,4.5,5.4,80,0.00,,,0.00,WUHU216HW,2013-01-15 14:02:00,
2013-01-15 07:07:00,16.7,11.9,30.21,North,0,7.2,7.2,81,0.00,,,0.00,WUHU216HW,2013-01-15 14:07:00,
2013-01-15 07:12:00,16.7,11.9,30.22,North,0,3.8,7.2,81,0.00,,,0.00,WUHU216HW,2013-01-15 14:12:00,
2013-01-15 07:17:00,16.9,12.1,30.22,North,0,4.7,6.9,81,0.00,,,0.00,WUHU216HW,2013-01-15 14:17:00,
2013-01-15 07:22:00,16.9,12.1,30.21,North,0,3.1,4.7,81,0.00,,,0.00,WUHU216HW,2013-01-15 14:22:00,
2013-01-15 07:27:00,16.9,12.1,30.22,North,0,2.2,4.5,81,0.00,,,0.00,WUHU216HW,2013-01-15 14:27:00,
2013-01-15 07:32:00,16.9,12.1,30.22,North,0,3.4,3.4,81,0.00,,,0.00,WUHU216HW,2013-01-15 14:32:00,
2013-01-15 07:37:00,16.9,12.1,30.23,North,0,1.6,3.4,81,0.00,,,0.00,WUHU216HW,2013-01-15 14:37:00,
2013-01-15 07:42:00,16.9,12.1,30.23,North,0,2.7,3.4,81,0.00,,,0.00,WUHU216HW,2013-01-15 14:42:00,
2013-01-15 07:47:00,16.9,12.1,30.23,North,0,2.7,4.3,81,0.00,,,0.00,WUHU216HW,2013-01-15 14:47:00,
2013-01-15 07:52:00,17.1,12.3,30.23,North,0,3.8,4.7,81,0.00,,,0.00,WUHU216HW,2013-01-15 14:52:00,
2013-01-15 07:57:00,17.1,12.3,30.23,North,0,3.4,5.4,81,0.00,,,0.00,WUHU216HW,2013-01-15 14:57:00,
2013-01-15 08:02:00,17.1,12.3,30.22,North,0,2.0,5.4,81,0.00,,,0.00,WUHU216HW,2013-01-15 15:02:00,
2013-01-15 08:07:00,17.3,12.3,30.23,North,0,2.7,4.5,81,0.00,,,0.00,WUHU216HW,2013-01-15 15:07:00,
2013-01-15 08:12:00,17.5,12.5,30.23,North,0,5.6,7.8,81,0.00,,,0.00,WUHU216HW,2013-01-15 15:12:00,
2013-01-15 08:17:00,17.8,12.9,30.23,North,0,6.9,7.8,81,0.00,,,0.00,WUHU216HW,2013-01-15 15:17:00,
2013-01-15 08:22:00,18.0,12.8,30.23,North,0,4.7,6.9,80,0.00,,,0.00,WUHU216HW,2013-01-15 15:22:00,
2013-01-15 08:27:00,18.2,12.7,30.23,North,0,4.0,11.6,79,0.00,,,0.00,WUHU216HW,2013-01-15 15:27:00,
2013-01-15 08:32:00,18.4,13.1,30.23,North,0,9.6,11.6,80,0.00,,,0.00,WUHU216HW,2013-01-15 15:32:00,
2013-01-15 08:37:00,18.5,13.1,30.23,North,0,9.2,10.5,79,0.00,,,0.00,WUHU216HW,2013-01-15 15:37:00,
2013-01-15 08:42:00,18.7,13.2,30.24,North,0,4.0,9.2,79,0.00,,,0.00,WUHU216HW,2013-01-15 15:42:00,
2013-01-15 08:47:00,19.1,13.6,30.24,North,0,6.9,9.2,79,0.00,,,0.00,WUHU216HW,2013-01-15 15:47:00,
2013-01-15 08:52:00,19.1,13.6,30.24,North,0,4.0,6.9,79,0.00,,,0.00,WUHU216HW,2013-01-15 15:52:00,
2013-01-15 08:57:00,19.4,14.0,30.24,North,0,5.8,6.3,79,0.00,,,0.00,WUHU216HW,2013-01-15 15:57:00,
2013-01-15 09:02:00,19.8,14.0,30.25,North,0,4.0,6.3,78,0.00,,,0.00,WUHU216HW,2013-01-15 16:02:00,
2013-01-15 09:07:00,19.8,14.0,30.25,North,0,5.4,6.0,78,0.00,,,0.00,WUHU216HW,2013-01-15 16:07:00,
2013-01-15 09:12:00,19.8,14.0,30.25,North,0,6.0,6.9,78,0.00,,,0.00,WUHU216HW,2013-01-15 16:12:00,
2013-01-15 09:17:00,20.0,13.9,30.25,North,0,7.6,7.6,77,0.00,,,0.00,WUHU216HW,2013-01-15 16:17:00,
2013-01-15 09:22:00,20.2,14.1,30.26,North,0,9.2,10.3,77,0.00,,,0.00,WUHU216HW,2013-01-15 16:22:00,
2013-01-15 09:27:00,20.5,14.4,30.26,North,0,5.6,10.3,77,0.00,,,0.00,WUHU216HW,2013-01-15 16:27:00,
2013-01-15 09:32:00,20.5,14.4,30.26,North,0,6.9,8.3,77,0.00,,,0.00,WUHU216HW,2013-01-15 16:32:00,
2013-01-15 09:37:00,20.5,14.4,30.26,North,0,5.4,8.3,77,0.00,,,0.00,WUHU216HW,2013-01-15 16:37:00,
2013-01-15 09:42:00,20.9,14.8,30.26,North,0,10.5,10.5,77,0.00,,,0.00,WUHU216HW,2013-01-15 16:42:00,
2013-01-15 09:47:00,21.2,14.8,30.25,North,0,9.4,10.7,76,0.00,,,0.00,WUHU216HW,2013-01-15 16:47:00,
2013-01-15 09:52:00,21.4,14.9,30.26,North,0,8.7,10.7,76,0.00,,,0.00,WUHU216HW,2013-01-15 16:52:00,
2013-01-15 09:57:00,21.2,14.5,30.26,North,0,5.4,10.5,75,0.00,,,0.00,WUHU216HW,2013-01-15 16:57:00,
2013-01-15 10:02:00,21.2,14.5,30.26,North,0,4.9,8.1,75,0.00,,,0.00,WUHU216HW,2013-01-15 17:02:00,
2013-01-15 10:07:00,21.6,15.1,30.25,North,0,5.8,5.8,76,0.00,,,0.00,WUHU216HW,2013-01-15 17:07:00,
2013-01-15 10:12:00,22.0,15.2,30.25,North,0,7.6,8.7,75,0.00,,,0.00,WUHU216HW,2013-01-15 17:12:00,
2013-01-15 10:17:00,22.5,15.8,30.25,North,0,7.6,8.9,75,0.00,,,0.00,WUHU216HW,2013-01-15 17:17:00,
2013-01-15 10:22:00,22.9,15.9,30.25,North,0,6.7,8.9,74,0.00,,,0.00,WUHU216HW,2013-01-15 17:22:00,
2013-01-15 10:27:00,23.4,16.3,30.25,North,0,7.6,8.5,74,0.00,,,0.00,WUHU216HW,2013-01-15 17:27:00,
2013-01-15 10:32:00,23.4,16.0,30.26,North,0,8.5,8.5,73,0.00,,,0.00,WUHU216HW,2013-01-15 17:32:00,
2013-01-15 10:37:00,23.6,16.2,30.26,North,0,7.4,8.5,73,0.00,,,0.00,WUHU216HW,2013-01-15 17:37:00,
2013-01-15 10:42:00,23.6,15.8,30.26,North,0,7.6,10.3,72,0.00,,,0.00,WUHU216HW,2013-01-15 17:42:00,
2013-01-15 10:47:00,23.8,16.0,30.26,North,0,6.9,10.3,72,0.00,,,0.00,WUHU216HW,2013-01-15 17:47:00,
2013-01-15 10:52:00,23.6,15.8,30.26,North,0,6.0,8.7,72,0.00,,,0.00,WUHU216HW,2013-01-15 17:52:00,
2013-01-15 10:57:00,23.9,16.2,30.26,North,0,8.5,8.7,72,0.00,,,0.00,WUHU216HW,2013-01-15 17:57:00,
2013-01-15 11:02:00,23.9,15.9,30.26,North,0,7.2,10.1,71,0.00,,,0.00,WUHU216HW,2013-01-15 18:02:00,
2013-01-15 11:07:00,24.1,15.8,30.26,North,0,8.1,11.0,70,0.00,,,0.00,WUHU216HW,2013-01-15 18:07:00,
2013-01-15 11:12:00,24.5,15.8,30.26,North,0,6.9,11.0,69,0.00,,,0.00,WUHU216HW,2013-01-15 18:12:00,
2013-01-15 11:17:00,24.8,16.4,30.27,North,0,7.6,8.5,70,0.00,,,0.00,WUHU216HW,2013-01-15 18:17:00,
2013-01-15 11:22:00,24.8,16.8,30.26,North,0,6.7,9.2,71,0.00,,,0.00,WUHU216HW,2013-01-15 18:22:00,
2013-01-15 11:27:00,25.2,17.1,30.26,North,0,6.7,9.2,71,0.00,,,0.00,WUHU216HW,2013-01-15 18:27:00,
2013-01-15 11:32:00,25.6,17.1,30.27,North,0,6.9,8.3,70,0.00,,,0.00,WUHU216HW,2013-01-15 18:32:00,
2013-01-15 11:37:00,25.4,16.6,30.26,North,0,7.6,11.2,69,0.00,,,0.00,WUHU216HW,2013-01-15 18:37:00,
2013-01-15 11:42:00,25.0,16.2,30.26,North,0,11.4,11.4,69,0.00,,,0.00,WUHU216HW,2013-01-15 18:42:00,
2013-01-15 11:47:00,24.8,16.0,30.26,North,0,6.3,11.4,69,0.00,,,0.00,WUHU216HW,2013-01-15 18:47:00,
2013-01-15 11:52:00,25.2,16.7,30.26,North,0,5.8,8.9,70,0.00,,,0.00,WUHU216HW,2013-01-15 18:52:00,
2013-01-15 11:57:00,25.2,16.7,30.27,North,0,6.3,6.5,70,0.00,,,0.00,WUHU216HW,2013-01-15 18:57:00,
2013-01-15 12:02:00,25.0,16.2,30.26,North,0,6.9,7.4,69,0.00,,,0.00,WUHU216HW,2013-01-15 19:02:00,
2013-01-15 12:07:00,24.8,16.0,30.26,North,0,6.0,8.5,69,0.00,,,0.00,WUHU216HW,2013-01-15 19:07:00,
2013-01-15 12:12:00,24.7,15.8,30.26,North,0,4.0,8.5,69,0.00,,,0.00,WUHU216HW,2013-01-15 19:12:00,
2013-01-15 12:17:00,24.3,15.2,30.26,North,0,6.9,6.9,68,0.00,,,0.00,WUHU216HW,2013-01-15 19:17:00,
2013-01-15 12:22:00,23.8,15.0,30.26,North,0,5.4,6.9,69,0.00,,,0.00,WUHU216HW,2013-01-15 19:22:00,
2013-01-15 12:27:00,23.8,15.4,30.27,North,0,4.7,5.8,70,0.00,,,0.00,WUHU216HW,2013-01-15 19:27:00,
2013-01-15 12:32:00,24.1,15.8,30.27,North,0,2.5,6.0,70,0.00,,,0.00,WUHU216HW,2013-01-15 19:32:00,
2013-01-15 12:37:00,24.8,16.8,30.27,North,0,3.4,6.0,71,0.00,,,0.00,WUHU216HW,2013-01-15 19:37:00,
2013-01-15 12:42:00,25.6,17.5,30.27,North,0,3.4,4.7,71,0.00,,,0.00,WUHU216HW,2013-01-15 19:42:00,
2013-01-15 12:47:00,26.1,17.9,30.27,North,0,0.2,3.4,71,0.00,,,0.00,WUHU216HW,2013-01-15 19:47:00,
2013-01-15 12:52:00,26.3,17.8,30.27,North,0,1.8,2.5,70,0.00,,,0.00,WUHU216HW,2013-01-15 19:52:00,
2013-01-15 12:57:00,26.3,17.8,30.27,North,0,4.0,4.0,70,0.00,,,0.00,WUHU216HW,2013-01-15 19:57:00,
2013-01-15 13:02:00,25.9,17.5,30.28,North,0,3.1,4.7,70,0.00,,,0.00,WUHU216HW,2013-01-15 20:02:00,
2013-01-15 13:07:00,26.1,17.6,30.28,North,0,2.7,4.7,70,0.00,,,0.00,WUHU216HW,2013-01-15 20:07:00,
2013-01-15 13:12:00,26.3,17.8,30.28,North,0,2.5,4.0,70,0.00,,,0.00,WUHU216HW,2013-01-15 20:12:00,
2013-01-15 13:17:00,26.6,18.2,30.28,North,0,2.5,4.0,70,0.00,,,0.00,WUHU216HW,2013-01-15 20:17:00,
2013-01-15 13:22:00,26.6,18.2,30.28,North,0,3.1,3.6,70,0.00,,,0.00,WUHU216HW,2013-01-15 20:22:00,
2013-01-15 13:27:00,26.6,18.2,30.27,North,0,4.0,4.0,70,0.00,,,0.00,WUHU216HW,2013-01-15 20:27:00,
2013-01-15 13:32:00,27.0,18.5,30.27,North,0,3.1,5.1,70,0.00,,,0.00,WUHU216HW,2013-01-15 20:32:00,
2013-01-15 13:37:00,27.0,18.5,30.27,North,0,4.3,5.1,70,0.00,,,0.00,WUHU216HW,2013-01-15 20:37:00,
2013-01-15 13:42:00,26.6,18.2,30.27,North,0,4.0,4.7,70,0.00,,,0.00,WUHU216HW,2013-01-15 20:42:00,
2013-01-15 13:47:00,26.6,18.2,30.26,North,0,2.5,4.3,70,0.00,,,0.00,WUHU216HW,2013-01-15 20:47:00,
2013-01-15 13:52:00,27.0,18.5,30.26,North,0,4.0,4.7,70,0.00,,,0.00,WUHU216HW,2013-01-15 20:52:00,
2013-01-15 13:57:00,27.4,18.9,30.26,North,0,4.3,6.5,70,0.00,,,0.00,WUHU216HW,2013-01-15 20:57:00,
2013-01-15 14:02:00,27.7,18.9,30.26,North,0,4.9,6.5,69,0.00,,,0.00,WUHU216HW,2013-01-15 21:02:00,
2013-01-15 14:07:00,27.5,18.4,30.27,North,0,3.1,4.9,68,0.00,,,0.00,WUHU216HW,2013-01-15 21:07:00,
2013-01-15 14:12:00,27.7,18.9,30.26,North,0,1.3,4.7,69,0.00,,,0.00,WUHU216HW,2013-01-15 21:12:00,
2013-01-15 14:17:00,27.9,19.4,30.26,North,0,2.2,4.5,70,0.00,,,0.00,WUHU216HW,2013-01-15 21:17:00,
2013-01-15 14:22:00,28.4,20.0,30.27,North,0,0.0,2.5,70,0.00,,,0.00,WUHU216HW,2013-01-15 21:22:00,
2013-01-15 14:27:00,29.0,20.4,30.27,North,0,2.2,2.2,70,0.00,,,0.00,WUHU216HW,2013-01-15 21:27:00,
2013-01-15 14:32:00,29.2,20.3,30.27,North,0,1.3,2.2,69,0.00,,,0.00,WUHU216HW,2013-01-15 21:32:00,
2013-01-15 14:37:00,29.5,20.3,30.27,North,0,0.0,1.3,68,0.00,,,0.00,WUHU216HW,2013-01-15 21:37:00,
2013-01-15 14:42:00,29.9,20.5,30.27,North,0,0.0,1.1,68,0.00,,,0.00,WUHU216HW,2013-01-15 21:42:00,
2013-01-15 14:47:00,29.9,20.2,30.28,North,0,0.4,1.1,67,0.00,,,0.00,WUHU216HW,2013-01-15 21:47:00,
2013-01-15 14:52:00,29.3,19.7,30.28,North,0,2.5,2.5,67,0.00,,,0.00,WUHU216HW,2013-01-15 21:52:00,
2013-01-15 14:57:00,29.0,19.7,30.28,North,0,3.4,4.0,68,0.00,,,0.00,WUHU216HW,2013-01-15 21:57:00,
2013-01-15 15:02:00,29.0,19.7,30.28,North,0,0.7,4.0,68,0.00,,,0.00,WUHU216HW,2013-01-15 22:02:00,
2013-01-15 15:07:00,29.0,19.7,30.28,North,0,3.1,3.8,68,0.00,,,0.00,WUHU216HW,2013-01-15 22:07:00,
2013-01-15 15:12:00,29.0,19.7,30.29,North,0,2.5,3.1,68,0.00,,,0.00,WUHU216HW,2013-01-15 22:12:00,
2013-01-15 15:17:00,29.2,19.9,30.29,North,0,1.3,2.9,68,0.00,,,0.00,WUHU216HW,2013-01-15 22:17:00,
2013-01-15 15:22:00,29.0,19.7,30.29,North,0,2.2,2.9,68,0.00,,,0.00,WUHU216HW,2013-01-15 22:22:00,
2013-01-15 15:27:00,29.2,19.9,30.29,North,0,2.9,2.9,68,0.00,,,0.00,WUHU216HW,2013-01-15 22:27:00,
2013-01-15 15:32:00,29.0,19.7,30.29,North,0,3.1,4.3,68,0.00,,,0.00,WUHU216HW,2013-01-15 22:32:00,
2013-01-15 15:37:00,28.6,19.5,30.29,North,0,3.1,4.3,68,0.00,,,0.00,WUHU216HW,2013-01-15 22:37:00,
2013-01-15 15:42:00,28.6,19.8,30.29,North,0,1.1,3.1,69,0.00,,,0.00,WUHU216HW,2013-01-15 22:42:00,
2013-01-15 15:47:00,28.4,19.6,30.29,North,0,1.1,1.8,69,0.00,,,0.00,WUHU216HW,2013-01-15 22:47:00,
2013-01-15 15:52:00,28.1,19.3,30.29,North,0,2.0,3.1,69,0.00,,,0.00,WUHU216HW,2013-01-15 22:52:00,
2013-01-15 15:57:00,27.9,19.4,30.29,North,0,2.2,3.4,70,0.00,,,0.00,WUHU216HW,2013-01-15 22:57:00,
2013-01-15 16:03:00,27.7,19.3,30.29,North,0,4.0,4.0,70,0.00,,,0.00,WUHU216HW,2013-01-15 23:03:00,
2013-01-15 16:08:00,27.4,18.9,30.29,North,0,2.5,4.0,70,0.00,,,0.00,WUHU216HW,2013-01-15 23:08:00,
2013-01-15 16:13:00,27.4,18.9,30.29,North,0,4.0,4.3,70,0.00,,,0.00,WUHU216HW,2013-01-15 23:13:00,
2013-01-15 16:18:00,27.0,18.8,30.29,North,0,4.9,4.9,71,0.00,,,0.00,WUHU216HW,2013-01-15 23:18:00,
2013-01-15 16:23:00,26.6,18.5,30.29,North,0,4.9,6.7,71,0.00,,,0.00,WUHU216HW,2013-01-15 23:23:00,
2013-01-15 16:28:00,26.5,18.3,30.29,North,0,5.1,6.7,71,0.00,,,0.00,WUHU216HW,2013-01-15 23:28:00,
2013-01-15 16:33:00,26.3,18.5,30.29,North,0,2.9,5.1,72,0.00,,,0.00,WUHU216HW,2013-01-15 23:33:00,
2013-01-15 16:38:00,26.3,18.5,30.29,North,0,2.5,4.5,72,0.00,,,0.00,WUHU216HW,2013-01-15 23:38:00,
2013-01-15 16:43:00,26.3,18.5,30.29,North,0,3.6,4.0,72,0.00,,,0.00,WUHU216HW,2013-01-15 23:43:00,
2013-01-15 16:48:00,26.3,18.5,30.29,North,0,2.0,5.4,72,0.00,,,0.00,WUHU216HW,2013-01-15 23:48:00,
2013-01-15 16:53:00,26.3,18.5,30.29,North,0,1.3,5.4,72,0.00,,,0.00,WUHU216HW,2013-01-15 23:53:00,
2013-01-15 16:58:00,26.5,18.6,30.29,North,0,0.7,3.1,72,0.00,,,0.00,WUHU216HW,2013-01-15 23:58:00,
2013-01-15 17:03:00,26.3,18.5,30.29,North,0,0.0,2.9,72,0.00,,,0.00,WUHU216HW,2013-01-16 00:03:00,
2013-01-15 17:08:00,26.3,18.5,30.29,North,0,0.0,2.9,72,0.00,,,0.00,WUHU216HW,2013-01-16 00:08:00,
2013-01-15 17:13:00,26.1,18.3,30.29,North,0,0.0,0.0,72,0.00,,,0.00,WUHU216HW,2013-01-16 00:13:00,
2013-01-15 17:18:00,25.9,18.1,30.29,North,0,1.1,1.1,72,0.00,,,0.00,WUHU216HW,2013-01-16 00:18:00,
2013-01-15 17:23:00,25.6,17.7,30.29,North,0,1.8,1.8,72,0.00,,,0.00,WUHU216HW,2013-01-16 00:23:00,
2013-01-15 17:28:00,25.2,17.4,30.29,North,0,1.8,2.5,72,0.00,,,0.00,WUHU216HW,2013-01-16 00:28:00,
2013-01-15 17:33:00,24.8,17.0,30.29,North,0,0.7,2.5,72,0.00,,,0.00,WUHU216HW,2013-01-16 00:33:00,
2013-01-15 17:38:00,24.5,16.8,30.29,North,0,0.0,1.3,72,0.00,,,0.00,WUHU216HW,2013-01-16 00:38:00,
2013-01-15 17:43:00,24.1,16.4,30.29,North,0,0.0,1.1,72,0.00,,,0.00,WUHU216HW,2013-01-16 00:43:00,
2013-01-15 17:48:00,23.9,16.2,30.29,North,0,0.0,1.1,72,0.00,,,0.00,WUHU216HW,2013-01-16 00:48:00,
2013-01-15 17:53:00,23.6,15.8,30.29,North,0,0.0,0.0,72,0.00,,,0.00,WUHU216HW,2013-01-16 00:53:00,
2013-01-15 17:58:00,23.2,15.6,30.29,North,0,0.7,0.7,72,0.00,,,0.00,WUHU216HW,2013-01-16 00:58:00,
2013-01-15 18:03:00,22.9,15.2,30.29,North,0,0.0,1.1,72,0.00,,,0.00,WUHU216HW,2013-01-16 01:03:00,
2013-01-15 18:08:00,22.5,14.9,30.29,North,0,1.6,2.0,72,0.00,,,0.00,WUHU216HW,2013-01-16 01:08:00,
2013-01-15 18:13:00,22.1,14.5,30.29,North,0,1.3,2.0,72,0.00,,,0.00,WUHU216HW,2013-01-16 01:13:00,
2013-01-15 18:18:00,21.8,14.4,30.29,North,0,0.9,1.8,73,0.00,,,0.00,WUHU216HW,2013-01-16 01:18:00,
2013-01-15 18:23:00,21.6,14.2,30.30,North,0,0.4,1.6,73,0.00,,,0.00,WUHU216HW,2013-01-16 01:23:00,
2013-01-15 18:28:00,21.2,13.9,30.30,North,0,1.6,1.8,73,0.00,,,0.00,WUHU216HW,2013-01-16 01:28:00,
2013-01-15 18:33:00,20.9,13.9,30.30,North,0,1.8,1.8,74,0.00,,,0.00,WUHU216HW,2013-01-16 01:33:00,
2013-01-15 18:38:00,20.5,13.5,30.31,North,0,1.6,1.8,74,0.00,,,0.00,WUHU216HW,2013-01-16 01:38:00,
2013-01-15 18:43:00,20.2,13.4,30.31,North,0,2.5,3.4,75,0.00,,,0.00,WUHU216HW,2013-01-16 01:43:00,
2013-01-15 18:48:00,20.0,13.0,30.30,North,0,3.4,3.4,74,0.00,,,0.00,WUHU216HW,2013-01-16 01:48:00,
2013-01-15 18:53:00,19.8,13.1,30.30,North,0,4.3,5.6,75,0.00,,,0.00,WUHU216HW,2013-01-16 01:53:00,
2013-01-15 18:58:00,20.2,13.4,30.30,North,0,4.0,5.6,75,0.00,,,0.00,WUHU216HW,2013-01-16 01:58:00,
2013-01-15 19:03:00,20.2,13.2,30.30,North,0,1.6,4.3,74,0.00,,,0.00,WUHU216HW,2013-01-16 02:03:00,
2013-01-15 19:08:00,20.0,13.0,30.30,North,0,0.4,3.1,74,0.00,,,0.00,WUHU216HW,2013-01-16 02:08:00,
2013-01-15 19:13:00,19.8,12.8,30.31,North,0,1.1,1.6,74,0.00,,,0.00,WUHU216HW,2013-01-16 02:13:00,
2013-01-15 19:18:00,19.4,12.4,30.31,North,0,0.0,4.0,74,0.00,,,0.00,WUHU216HW,2013-01-16 02:18:00,
2013-01-15 19:23:00,19.6,12.9,30.31,North,0,6.0,6.3,75,0.00,,,0.00,WUHU216HW,2013-01-16 02:23:00,
2013-01-15 19:28:00,19.8,13.1,30.31,North,0,3.6,6.3,75,0.00,,,0.00,WUHU216HW,2013-01-16 02:28:00,
2013-01-15 19:33:00,20.3,13.6,30.31,North,0,3.8,4.7,75,0.00,,,0.00,WUHU216HW,2013-01-16 02:33:00,
2013-01-15 19:38:00,20.7,14.0,30.31,North,0,5.4,7.8,75,0.00,,,0.00,WUHU216HW,2013-01-16 02:38:00,
2013-01-15 19:43:00,21.2,14.2,30.31,North,0,5.6,7.8,74,0.00,,,0.00,WUHU216HW,2013-01-16 02:43:00,
2013-01-15 19:48:00,21.2,14.2,30.31,North,0,3.4,7.4,74,0.00,,,0.00,WUHU216HW,2013-01-16 02:48:00,
2013-01-15 19:53:00,20.9,14.1,30.30,North,0,3.1,6.0,75,0.00,,,0.00,WUHU216HW,2013-01-16 02:53:00,
2013-01-15 19:58:00,20.7,14.0,30.30,North,0,4.3,5.4,75,0.00,,,0.00,WUHU216HW,2013-01-16 02:58:00,
2013-01-15 20:03:00,20.9,13.9,30.30,North,0,3.4,6.3,74,0.00,,,0.00,WUHU216HW,2013-01-16 03:03:00,
2013-01-15 20:08:00,20.7,14.0,30.30,North,0,3.8,6.5,75,0.00,,,0.00,WUHU216HW,2013-01-16 03:08:00,
2013-01-15 20:13:00,20.5,13.5,30.30,North,0,4.5,6.5,74,0.00,,,0.00,WUHU216HW,2013-01-16 03:13:00,
2013-01-15 20:18:00,20.5,13.5,30.30,North,0,3.1,4.7,74,0.00,,,0.00,WUHU216HW,2013-01-16 03:18:00,
2013-01-15 20:23:00,20.5,13.5,30.30,North,0,2.7,5.4,74,0.00,,,0.00,WUHU216HW,2013-01-16 03:23:00,
2013-01-15 20:28:00,20.5,13.5,30.30,North,0,4.0,5.4,74,0.00,,,0.00,WUHU216HW,2013-01-16 03:28:00,
2013-01-15 20:33:00,20.3,13.6,30.30,North,0,1.3,4.0,75,0.00,,,0.00,WUHU216HW,2013-01-16 03:33:00,
2013-01-15 20:38:00,19.8,12.8,30.30,North,0,0.0,4.0,74,0.00,,,0.00,WUHU216HW,2013-01-16 03:38:00,
2013-01-15 20:43:00,19.1,12.1,30.30,North,0,1.1,2.7,74,0.00,,,0.00,WUHU216HW,2013-01-16 03:43:00,
2013-01-15 20:48:00,18.7,12.0,30.29,North,0,3.1,3.1,75,0.00,,,0.00,WUHU216HW,2013-01-16 03:48:00,
2013-01-15 20:53:00,18.7,11.7,30.30,North,0,2.5,3.1,74,0.00,,,0.00,WUHU216HW,2013-01-16 03:53:00,
2013-01-15 20:58:00,18.7,11.7,30.30,North,0,5.4,5.4,74,0.00,,,0.00,WUHU216HW,2013-01-16 03:58:00,
2013-01-15 21:03:00,18.9,12.2,30.29,North,0,5.8,7.2,75,0.00,,,0.00,WUHU216HW,2013-01-16 04:03:00,
2013-01-15 21:08:00,19.1,12.3,30.30,North,0,5.1,7.6,75,0.00,,,0.00,WUHU216HW,2013-01-16 04:08:00,
2013-01-15 21:13:00,19.3,12.5,30.30,North,0,3.4,7.6,75,0.00,,,0.00,WUHU216HW,2013-01-16 04:13:00,
2013-01-15 21:18:00,19.1,12.3,30.30,North,0,3.1,4.9,75,0.00,,,0.00,WUHU216HW,2013-01-16 04:18:00,
2013-01-15 21:23:00,18.4,11.7,30.30,North,0,4.0,4.5,75,0.00,,,0.00,WUHU216HW,2013-01-16 04:23:00,
2013-01-15 21:28:00,18.5,12.2,30.30,North,0,4.3,5.8,76,0.00,,,0.00,WUHU216HW,2013-01-16 04:28:00,
2013-01-15 21:33:00,19.1,12.7,30.30,North,0,11.0,11.0,76,0.00,,,0.00,WUHU216HW,2013-01-16 04:33:00,
2013-01-15 21:38:00,19.4,13.0,30.30,North,0,7.6,11.0,76,0.00,,,0.00,WUHU216HW,2013-01-16 04:38:00,
2013-01-15 21:43:00,19.6,12.9,30.31,North,0,8.5,11.0,75,0.00,,,0.00,WUHU216HW,2013-01-16 04:43:00,
2013-01-15 21:48:00,19.6,12.9,30.30,North,0,7.6,11.0,75,0.00,,,0.00,WUHU216HW,2013-01-16 04:48:00,
2013-01-15 21:53:00,19.4,12.4,30.31,North,0,3.8,9.2,74,0.00,,,0.00,WUHU216HW,2013-01-16 04:53:00,
2013-01-15 21:58:00,19.1,12.1,30.30,North,0,4.7,6.7,74,0.00,,,0.00,WUHU216HW,2013-01-16 04:58:00,
2013-01-15 22:00:00,19.1,12.1,30.31,North,0,5.1,6.3,74,0.00,,,0.00,WUHU216HW,2013-01-16 05:00:00,
2013-01-15 22:03:00,18.9,11.9,30.31,North,0,3.4,5.4,74,0.00,,,0.00,WUHU216HW,2013-01-16 05:03:00,
2013-01-15 22:08:00,18.7,12.0,30.31,North,0,3.6,5.4,75,0.00,,,0.00,WUHU216HW,2013-01-16 05:08:00,
2013-01-15 22:13:00,18.7,12.0,30.31,North,0,3.4,5.6,75,0.00,,,0.00,WUHU216HW,2013-01-16 05:13:00,
2013-01-15 22:18:00,18.7,12.0,30.31,North,0,4.5,5.6,75,0.00,,,0.00,WUHU216HW,2013-01-16 05:18:00,
2013-01-15 22:23:00,18.7,12.0,30.31,North,0,4.7,5.1,75,0.00,,,0.00,WUHU216HW,2013-01-16 05:23:00,
2013-01-15 22:28:00,19.1,12.7,30.30,North,0,6.3,7.6,76,0.00,,,0.00,WUHU216HW,2013-01-16 05:28:00,
2013-01-15 22:33:00,19.3,12.5,30.31,North,0,2.5,7.6,75,0.00,,,0.00,WUHU216HW,2013-01-16 05:33:00,
2013-01-15 22:38:00,19.4,12.7,30.30,North,0,4.7,5.6,75,0.00,,,0.00,WUHU216HW,2013-01-16 05:38:00,
2013-01-15 22:43:00,19.4,12.7,30.31,North,0,3.6,7.2,75,0.00,,,0.00,WUHU216HW,2013-01-16 05:43:00,
2013-01-15 22:48:00,19.4,12.4,30.30,North,0,5.1,7.2,74,0.00,,,0.00,WUHU216HW,2013-01-16 05:48:00,
2013-01-15 22:53:00,19.1,12.1,30.30,North,0,2.9,5.1,74,0.00,,,0.00,WUHU216HW,2013-01-16 05:53:00,
2013-01-15 22:58:00,18.7,11.7,30.30,North,0,2.5,4.9,74,0.00,,,0.00,WUHU216HW,2013-01-16 05:58:00,
2013-01-15 23:03:00,18.5,11.5,30.30,North,0,0.2,4.3,74,0.00,,,0.00,WUHU216HW,2013-01-16 06:03:00,
2013-01-15 23:09:00,18.4,11.3,30.31,North,0,0.4,4.3,74,0.00,,,0.00,WUHU216HW,2013-01-16 06:09:00,
2013-01-15 23:14:00,17.8,10.9,30.31,North,0,1.8,2.9,74,0.00,,,0.00,WUHU216HW,2013-01-16 06:14:00,
2013-01-15 23:19:00,17.1,10.2,30.31,North,0,1.8,3.4,74,0.00,,,0.00,WUHU216HW,2013-01-16 06:19:00,
2013-01-15 23:24:00,16.6,10.0,30.31,North,0,2.9,3.8,75,0.00,,,0.00,WUHU216HW,2013-01-16 06:24:00,
2013-01-15 23:29:00,16.2,9.9,30.31,North,0,2.2,4.7,76,0.00,,,0.00,WUHU216HW,2013-01-16 06:29:00,
2013-01-15 23:34:00,16.2,10.3,30.31,North,0,2.5,4.7,77,0.00,,,0.00,WUHU216HW,2013-01-16 06:34:00,
2013-01-15 23:39:00,16.2,10.3,30.32,North,0,2.9,2.9,77,0.00,,,0.00,WUHU216HW,2013-01-16 06:39:00,
2013-01-15 23:44:00,16.2,10.3,30.31,North,0,0.4,4.3,77,0.00,,,0.00,WUHU216HW,2013-01-16 06:44:00,
2013-01-15 23:49:00,15.8,9.5,30.31,North,0,0.7,4.3,76,0.00,,,0.00,WUHU216HW,2013-01-16 06:49:00,
2013-01-15 23:54:00,15.5,9.3,30.31,North,0,3.1,3.1,76,0.00,,,0.00,WUHU216HW,2013-01-16 06:54:00,
2013-01-15 23:59:00,15.5,9.3,30.31,North,0,2.0,3.4,76,0.00,,,0.00,WUHU216HW,2013-01-16 06:59:00,